3AU

Augusta Municipal Airport

Augusta, Kansas, USA
METAR K3AU 200155Z AUTO 00000KT 10SM CLR 12/12 A3014 RMK AO2
Observed Flight Rules
Oct-20 @ 01:55 UTC (32 minutes ago) Visual Flight Rules
Visibility Clouds
10 miles
  • Clear skies
Temperatures Readings
Current 12°C / 54°F
Dewpoint 12°C / 54°F
Humidity 100%
Altimeter 30.14" Hg
Pressure 1021 hPa
Elevation 405
METAR K3AU 200155Z AUTO 00000KT 10SM CLR 12/12 A3014 RMK AO2
Observed Flight Rules
Oct-20 @ 01:55 UTC
(32 minutes ago)
VFR
Clouds
  • Clear skies
Temperature Dewpoint
12°C / 54°F 12°C / 54°F
Humidity Altimeter Pressure
100% 30.14" Hg 1021 hPa